Terminal Aerodrome Forecast
Issued by NWS

Home | Current Version | Previous Version | Text Only | Print | Product List | Glossary On
Versions: 1 2 3 4 5 6 7 8 9 10 11 12 13 14 15 16 17 18 19 20 21 22 23 24 25 26 27 28 29 30 31 32
000
FTUS43 KDTX 090527
TAFYIP
TAF
KYIP 090527Z 0906/1006 27010KT 6SM -SHSN SCT035 OVC045
     FM090800 29008KT 4SM -SHSN OVC015
     FM091400 29012G20KT P6SM SCT025 OVC040
     FM091800 28014G24KT P6SM -SHSN BKN018 OVC028
     FM100000 27012KT 4SM -SHSN OVC018=

USA.gov is the U.S. government's official web portal to all federal, state and local government web resources and services.